Time;durP1;ratioP1;P1;durP2;ratioP2;P2;SDS_P1;SDS_P2;PMS_P1;PMS_P2;Temp;Humidity;BMP_temperature;BMP_pressure;BME280_temperature;BME280_humidity;BME280_pressure;Samples;Min_cycle;Max_cycle;Signal;HPM_P1;HPM_P2
2022/10/17 00:01:36;;;;;;;;;;;20.80;99.90;;;;;;4987610;28;20390;-65
2022/10/17 00:04:03;;;;;;;;;;;20.80;99.90;;;;;;4984414;28;19937;-65
2022/10/17 00:06:30;;;;;;;;;;;20.80;99.90;;;;;;4991635;28;19944;-65
2022/10/17 00:08:57;;;;;;;;;;;20.80;99.90;;;;;;4989391;28;20006;-66
2022/10/17 00:11:24;;;;;;;;;;;20.70;99.90;;;;;;4991370;28;20257;-67
2022/10/17 00:13:53;;;;;;;;;;;20.80;99.90;;;;;;4999717;28;19933;-64
2022/10/17 00:16:24;;;;;;;;;;;20.80;99.90;;;;;;4986176;28;19930;-66
2022/10/17 00:18:52;;;;;;;;;;;20.70;99.90;;;;;;4994983;28;19933;-65
2022/10/17 00:21:19;;;;;;;;;;;20.70;99.90;;;;;;4987715;28;20472;-66
2022/10/17 00:23:47;;;;;;;;;;;20.70;99.90;;;;;;4983176;28;19930;-65
2022/10/17 00:26:15;;;;;;;;;;;20.70;99.90;;;;;;4990048;28;19930;-65
2022/10/17 00:28:45;;;;;;;;;;;20.70;99.90;;;;;;4988718;28;19937;-65
2022/10/17 00:31:12;;;;;;;;;;;20.70;99.90;;;;;;4996996;28;19930;-66
2022/10/17 00:33:39;;;;;;;;;;;20.70;99.90;;;;;;5016132;28;19925;-65
2022/10/17 00:36:11;;;;;;;;;;;20.70;99.90;;;;;;5001013;28;19930;-66
2022/10/17 00:38:39;;;;;;;;;;;20.70;99.90;;;;;;5000037;28;19929;-64
2022/10/17 00:41:12;;;;;;;;;;;20.70;99.90;;;;;;5018634;28;19926;-64
2022/10/17 00:43:53;;;;;;;;;;;20.70;99.90;;;;;;4982953;28;19925;-64
2022/10/17 00:46:21;;;;;;;;;;;20.70;99.90;;;;;;4980491;28;20321;-65
2022/10/17 00:48:50;;;;;;;;;;;20.70;99.90;;;;;;4989157;28;20414;-66
2022/10/17 00:51:19;;;;;;;;;;;20.70;99.90;;;;;;4987252;28;19929;-66
2022/10/17 00:53:47;;;;;;;;;;;20.70;99.90;;;;;;5005518;28;20977;-66
2022/10/17 00:56:14;;;;;;;;;;;20.70;99.90;;;;;;4987911;28;19930;-66
2022/10/17 00:58:43;;;;;;;;;;;20.70;99.90;;;;;;4996451;28;20420;-65
2022/10/17 01:01:10;;;;;;;;;;;20.70;99.90;;;;;;4993240;28;19925;-65
2022/10/17 01:03:37;;;;;;;;;;;20.70;99.90;;;;;;4995893;28;19933;-65
2022/10/17 01:06:04;;;;;;;;;;;20.70;99.90;;;;;;4994357;28;19925;-66
2022/10/17 01:08:31;;;;;;;;;;;20.70;99.90;;;;;;4976874;28;19932;-65
2022/10/17 01:11:07;;;;;;;;;;;20.70;99.90;;;;;;4987650;28;20295;-66
2022/10/17 01:13:38;;;;;;;;;;;20.70;99.90;;;;;;4988726;28;19925;-65
2022/10/17 01:16:18;;;;;;;;;;;20.70;99.90;;;;;;4989986;28;19937;-65
2022/10/17 01:18:48;;;;;;;;;;;20.60;99.90;;;;;;4981666;28;19926;-65
2022/10/17 01:21:34;;;;;;;;;;;20.60;99.90;;;;;;4993054;28;19933;-64
2022/10/17 01:24:07;;;;;;;;;;;20.60;99.90;;;;;;4999942;28;19926;-66
2022/10/17 01:26:47;;;;;;;;;;;20.60;99.90;;;;;;4992926;28;20348;-65
2022/10/17 01:29:24;;;;;;;;;;;20.60;99.90;;;;;;4982993;28;19945;-64
2022/10/17 01:31:54;;;;;;;;;;;20.60;99.90;;;;;;4987420;28;19925;-65
2022/10/17 01:34:35;;;;;;;;;;;20.60;99.90;;;;;;4976019;28;19929;-65
2022/10/17 01:37:07;;;;;;;;;;;20.60;99.90;;;;;;4992360;28;20248;-66
2022/10/17 01:39:45;;;;;;;;;;;20.60;99.90;;;;;;4992702;28;19925;-65
2022/10/17 01:42:17;;;;;;;;;;;20.60;99.90;;;;;;4997285;28;19930;-65
2022/10/17 01:44:58;;;;;;;;;;;20.60;99.90;;;;;;4993080;28;20301;-65
2022/10/17 01:47:28;;;;;;;;;;;20.60;99.90;;;;;;4980972;28;19952;-65
2022/10/17 01:50:00;;;;;;;;;;;20.60;99.90;;;;;;4988032;28;19935;-65
2022/10/17 01:52:31;;;;;;;;;;;20.60;99.90;;;;;;5000261;28;20409;-66
2022/10/17 01:55:13;;;;;;;;;;;20.60;99.90;;;;;;4993911;28;19936;-66
2022/10/17 01:57:45;;;;;;;;;;;20.60;99.90;;;;;;5012304;28;19926;-65
2022/10/17 02:00:17;;;;;;;;;;;20.60;99.90;;;;;;5007473;28;19926;-65
2022/10/17 02:02:52;;;;;;;;;;;20.60;99.90;;;;;;4995587;28;19933;-66
2022/10/17 02:05:21;;;;;;;;;;;20.60;99.90;;;;;;5011543;28;19926;-66
2022/10/17 02:07:48;;;;;;;;;;;20.60;99.90;;;;;;4993128;28;19949;-65
2022/10/17 02:10:20;;;;;;;;;;;20.60;99.90;;;;;;4985568;28;19926;-64
2022/10/17 02:12:53;;;;;;;;;;;20.50;99.90;;;;;;4988248;28;19933;-64
2022/10/17 02:15:37;;;;;;;;;;;20.50;99.90;;;;;;4996708;28;19925;-66
2022/10/17 02:18:08;;;;;;;;;;;20.60;99.90;;;;;;4988801;28;19926;-65
2022/10/17 02:20:45;;;;;;;;;;;20.50;99.90;;;;;;4975770;28;19937;-64
2022/10/17 02:23:20;;;;;;;;;;;20.50;99.90;;;;;;5009413;28;19930;-64
2022/10/17 02:25:51;;;;;;;;;;;20.50;99.90;;;;;;4998199;28;19934;-66
2022/10/17 02:28:18;;;;;;;;;;;20.50;99.90;;;;;;4996793;28;20389;-66
2022/10/17 02:30:48;;;;;;;;;;;20.50;99.90;;;;;;5008790;28;19933;-62
2022/10/17 02:33:19;;;;;;;;;;;20.50;99.90;;;;;;4995492;28;19934;-64
2022/10/17 02:35:50;;;;;;;;;;;20.50;99.90;;;;;;4991002;28;20392;-65
2022/10/17 02:38:18;;;;;;;;;;;20.50;99.90;;;;;;4996830;28;19934;-66
2022/10/17 02:40:47;;;;;;;;;;;20.50;99.90;;;;;;4987191;28;19926;-66
2022/10/17 02:43:14;;;;;;;;;;;20.50;99.90;;;;;;4988602;28;19929;-64
2022/10/17 02:45:41;;;;;;;;;;;20.50;99.90;;;;;;4984499;28;20401;-64
2022/10/17 02:48:13;;;;;;;;;;;20.50;99.90;;;;;;4987449;28;20409;-65
2022/10/17 02:51:10;;;;;;;;;;;20.50;99.90;;;;;;4993584;28;19926;-66
2022/10/17 02:53:43;;;;;;;;;;;20.50;99.90;;;;;;5003756;28;19937;-64
2022/10/17 02:56:16;;;;;;;;;;;20.50;99.90;;;;;;5001240;28;19925;-66
2022/10/17 02:58:45;;;;;;;;;;;20.50;99.90;;;;;;4996148;28;19937;-65
2022/10/17 03:01:14;;;;;;;;;;;20.40;99.90;;;;;;4997166;28;19937;-66
2022/10/17 03:03:42;;;;;;;;;;;20.50;99.90;;;;;;4989525;28;19930;-64
2022/10/17 03:06:09;;;;;;;;;;;20.40;99.90;;;;;;5006958;28;20416;-64
2022/10/17 03:08:36;;;;;;;;;;;20.40;99.90;;;;;;4985927;28;19926;-65
2022/10/17 03:11:04;;;;;;;;;;;20.50;99.90;;;;;;4983602;28;19926;-67
2022/10/17 03:13:32;;;;;;;;;;;20.40;99.90;;;;;;4994357;28;19929;-66
2022/10/17 03:16:05;;;;;;;;;;;20.40;99.90;;;;;;4985196;28;19932;-65
2022/10/17 03:18:32;;;;;;;;;;;20.40;99.90;;;;;;5004132;28;20421;-66
2022/10/17 03:21:01;;;;;;;;;;;20.40;99.90;;;;;;4979488;28;19926;-66
2022/10/17 03:23:29;;;;;;;;;;;20.40;99.90;;;;;;5009065;28;20309;-64
2022/10/17 03:25:56;;;;;;;;;;;20.40;99.90;;;;;;4988666;28;20402;-64
2022/10/17 03:28:23;;;;;;;;;;;20.40;99.90;;;;;;5009026;28;19930;-66
2022/10/17 03:30:50;;;;;;;;;;;20.40;99.90;;;;;;5001135;28;19937;-65
2022/10/17 03:33:17;;;;;;;;;;;20.40;99.90;;;;;;4993707;28;19934;-63
2022/10/17 03:35:45;;;;;;;;;;;20.40;99.90;;;;;;4987777;28;19929;-66
2022/10/17 03:38:12;;;;;;;;;;;20.50;99.90;;;;;;4993883;28;19960;-63
2022/10/17 03:40:39;;;;;;;;;;;20.40;99.90;;;;;;4990213;28;20397;-65
2022/10/17 03:43:06;;;;;;;;;;;20.40;99.90;;;;;;5008450;28;19933;-66
2022/10/17 03:45:34;;;;;;;;;;;20.40;99.90;;;;;;4997442;28;19926;-65
2022/10/17 03:48:01;;;;;;;;;;;20.40;99.90;;;;;;4985356;28;19926;-66
2022/10/17 03:50:29;;;;;;;;;;;20.40;99.90;;;;;;5003459;28;19936;-63
2022/10/17 03:52:57;;;;;;;;;;;20.40;99.90;;;;;;4986378;28;19945;-65
2022/10/17 03:55:24;;;;;;;;;;;20.40;99.90;;;;;;4987748;28;19937;-67
2022/10/17 03:57:52;;;;;;;;;;;20.40;99.90;;;;;;5002830;28;19926;-66
2022/10/17 04:00:20;;;;;;;;;;;20.40;99.90;;;;;;5005970;28;19929;-67
2022/10/17 04:02:54;;;;;;;;;;;20.50;99.90;;;;;;4979265;28;19930;-64
2022/10/17 04:05:21;;;;;;;;;;;20.50;99.90;;;;;;5007300;28;19933;-65
2022/10/17 04:07:48;;;;;;;;;;;20.50;99.90;;;;;;5002611;28;19941;-67
2022/10/17 04:10:19;;;;;;;;;;;20.50;99.90;;;;;;5013795;28;19926;-64
2022/10/17 04:12:47;;;;;;;;;;;20.60;99.90;;;;;;5001270;28;20424;-65
2022/10/17 04:15:14;;;;;;;;;;;20.60;99.90;;;;;;4992636;28;20595;-66
2022/10/17 04:17:41;;;;;;;;;;;20.60;99.90;;;;;;4993113;28;20397;-66
2022/10/17 04:20:08;;;;;;;;;;;20.60;99.90;;;;;;4977241;28;19934;-65
2022/10/17 04:22:36;;;;;;;;;;;20.60;99.90;;;;;;4994407;28;20389;-65
2022/10/17 04:25:03;;;;;;;;;;;20.70;99.90;;;;;;5006079;28;19926;-65
2022/10/17 04:27:34;;;;;;;;;;;20.70;99.90;;;;;;4976679;28;19926;-65
2022/10/17 04:30:01;;;;;;;;;;;20.60;99.90;;;;;;4984668;28;19936;-66
2022/10/17 04:32:30;;;;;;;;;;;20.70;99.90;;;;;;4979792;28;19926;-65
2022/10/17 04:35:12;;;;;;;;;;;20.70;99.90;;;;;;5010051;28;19930;-65
2022/10/17 04:37:43;;;;;;;;;;;20.70;99.90;;;;;;5004753;28;19925;-65
2022/10/17 04:40:16;;;;;;;;;;;20.70;99.90;;;;;;5012734;28;19927;-65
2022/10/17 04:42:44;;;;;;;;;;;20.70;99.90;;;;;;5011521;28;19929;-64
2022/10/17 04:45:14;;;;;;;;;;;20.70;99.90;;;;;;5006687;28;19934;-66
2022/10/17 04:47:42;;;;;;;;;;;20.70;99.90;;;;;;4987029;28;20304;-66
2022/10/17 04:50:09;;;;;;;;;;;20.70;99.90;;;;;;4989401;28;20313;-66
2022/10/17 04:52:38;;;;;;;;;;;20.70;99.90;;;;;;4994718;28;19936;-62
2022/10/17 04:55:07;;;;;;;;;;;20.70;99.90;;;;;;4980761;28;20378;-66
2022/10/17 04:57:34;;;;;;;;;;;20.70;99.90;;;;;;5012166;28;19925;-64
2022/10/17 05:00:14;;;;;;;;;;;20.70;99.90;;;;;;5007628;28;19930;-65
2022/10/17 05:03:04;;;;;;;;;;;20.70;99.90;;;;;;4996273;28;19929;-66
2022/10/17 05:05:32;;;;;;;;;;;20.70;99.90;;;;;;4987678;28;19930;-65
2022/10/17 05:08:02;;;;;;;;;;;20.70;99.90;;;;;;5018077;28;20083;-65
2022/10/17 05:10:35;;;;;;;;;;;20.70;99.90;;;;;;4978170;28;19930;-66
2022/10/17 05:13:03;;;;;;;;;;;20.70;99.90;;;;;;5010568;28;19937;-66
2022/10/17 05:15:31;;;;;;;;;;;20.70;99.90;;;;;;5017723;28;19944;-66
2022/10/17 05:18:00;;;;;;;;;;;20.70;99.90;;;;;;4990366;28;19933;-64
2022/10/17 05:20:29;;;;;;;;;;;20.70;99.90;;;;;;5013934;28;19933;-67
2022/10/17 05:22:57;;;;;;;;;;;20.70;99.90;;;;;;4994052;28;20377;-66
2022/10/17 05:25:28;;;;;;;;;;;20.70;99.90;;;;;;4986975;28;20313;-65
2022/10/17 05:27:55;;;;;;;;;;;20.70;99.90;;;;;;4996030;28;19947;-64
2022/10/17 05:30:22;;;;;;;;;;;20.70;99.90;;;;;;4999132;28;19937;-65
2022/10/17 05:32:54;;;;;;;;;;;20.70;99.90;;;;;;4995678;28;19932;-66
2022/10/17 05:35:21;;;;;;;;;;;20.70;99.90;;;;;;4995961;28;19926;-65
2022/10/17 05:37:48;;;;;;;;;;;20.70;99.90;;;;;;4988338;28;19933;-66
2022/10/17 05:40:17;;;;;;;;;;;20.70;99.90;;;;;;5000780;28;19957;-62
2022/10/17 05:42:45;;;;;;;;;;;20.60;99.90;;;;;;4990923;28;19929;-64
2022/10/17 05:45:13;;;;;;;;;;;20.70;99.90;;;;;;4998283;28;19930;-65
2022/10/17 05:47:40;;;;;;;;;;;20.70;99.90;;;;;;4989300;28;19932;-67
2022/10/17 05:50:08;;;;;;;;;;;20.70;99.90;;;;;;5003320;28;19941;-64
2022/10/17 05:52:53;;;;;;;;;;;20.70;99.90;;;;;;5002141;28;20405;-65
2022/10/17 05:55:21;;;;;;;;;;;20.70;99.90;;;;;;5008076;28;19926;-64
2022/10/17 05:57:51;;;;;;;;;;;20.70;99.90;;;;;;5002546;28;19926;-62
2022/10/17 06:00:19;;;;;;;;;;;20.70;99.90;;;;;;5007765;28;19930;-65
2022/10/17 06:02:53;;;;;;;;;;;20.70;99.90;;;;;;4992795;28;19948;-64
2022/10/17 06:05:21;;;;;;;;;;;20.70;99.90;;;;;;5007406;28;19930;-66
2022/10/17 06:07:51;;;;;;;;;;;20.70;99.90;;;;;;4991666;28;19941;-64
2022/10/17 06:10:19;;;;;;;;;;;20.70;99.90;;;;;;5008508;28;19934;-64
2022/10/17 06:12:48;;;;;;;;;;;20.70;99.90;;;;;;4980614;28;20142;-64
2022/10/17 06:15:16;;;;;;;;;;;20.70;99.90;;;;;;4989222;28;20319;-66
2022/10/17 06:17:47;;;;;;;;;;;20.70;99.90;;;;;;4995063;28;19936;-66
2022/10/17 06:20:14;;;;;;;;;;;20.60;99.90;;;;;;5004266;28;19937;-66
2022/10/17 06:22:42;;;;;;;;;;;20.70;99.90;;;;;;5010735;28;20295;-65
2022/10/17 06:25:15;;;;;;;;;;;20.60;99.90;;;;;;5001125;28;19937;-64
2022/10/17 06:27:43;;;;;;;;;;;20.60;99.90;;;;;;4996280;28;19930;-64
2022/10/17 06:30:11;;;;;;;;;;;20.60;99.90;;;;;;4975890;28;19941;-66
2022/10/17 06:32:38;;;;;;;;;;;20.70;99.90;;;;;;4998688;28;19929;-65
2022/10/17 06:35:05;;;;;;;;;;;20.60;99.90;;;;;;4998345;28;20294;-65
2022/10/17 06:37:33;;;;;;;;;;;20.60;99.90;;;;;;4985741;28;19936;-66
2022/10/17 06:40:07;;;;;;;;;;;20.60;99.90;;;;;;5011059;28;19929;-66
2022/10/17 06:42:37;;;;;;;;;;;20.60;99.90;;;;;;4998283;28;19926;-65
2022/10/17 06:45:22;;;;;;;;;;;20.60;99.90;;;;;;5000038;28;19934;-65
2022/10/17 06:48:08;;;;;;;;;;;20.60;99.90;;;;;;4982615;28;19937;-63
2022/10/17 06:50:43;;;;;;;;;;;20.60;99.90;;;;;;5005613;28;19930;-64
2022/10/17 06:53:14;;;;;;;;;;;20.60;99.90;;;;;;5003401;28;19930;-63
2022/10/17 06:55:57;;;;;;;;;;;20.60;99.90;;;;;;4988408;28;19933;-65
2022/10/17 06:58:40;;;;;;;;;;;20.60;99.90;;;;;;4992961;28;19926;-65
2022/10/17 07:01:16;;;;;;;;;;;20.60;99.90;;;;;;4988731;28;20222;-65
2022/10/17 07:03:46;;;;;;;;;;;20.60;99.90;;;;;;5008041;28;20320;-64
2022/10/17 07:06:14;;;;;;;;;;;20.60;99.90;;;;;;5005689;28;19930;-65
2022/10/17 07:08:46;;;;;;;;;;;20.60;99.90;;;;;;4997093;28;20409;-64
2022/10/17 07:11:17;;;;;;;;;;;20.60;99.90;;;;;;4983331;28;20306;-65
2022/10/17 07:13:44;;;;;;;;;;;20.60;99.90;;;;;;4999538;28;19926;-65
2022/10/17 07:16:11;;;;;;;;;;;20.60;99.90;;;;;;4992685;28;20150;-65
2022/10/17 07:18:40;;;;;;;;;;;20.60;99.90;;;;;;5000402;28;19926;-65
2022/10/17 07:21:08;;;;;;;;;;;20.60;99.90;;;;;;4992244;28;19936;-60
2022/10/17 07:23:38;;;;;;;;;;;20.60;99.90;;;;;;5007911;28;19929;-65
2022/10/17 07:26:07;;;;;;;;;;;20.60;99.90;;;;;;4997449;28;19929;-65
2022/10/17 07:28:37;;;;;;;;;;;20.60;99.90;;;;;;5002819;28;19925;-63
2022/10/17 07:31:16;;;;;;;;;;;20.60;99.90;;;;;;4967989;28;19930;-65
2022/10/17 07:33:43;;;;;;;;;;;20.60;99.90;;;;;;4993224;28;19953;-65
2022/10/17 07:36:16;;;;;;;;;;;20.60;99.90;;;;;;4986525;28;19930;-66
2022/10/17 07:38:43;;;;;;;;;;;20.60;99.90;;;;;;4980753;28;19930;-66
2022/10/17 07:41:12;;;;;;;;;;;20.60;99.90;;;;;;4993006;28;19948;-66
2022/10/17 07:43:46;;;;;;;;;;;20.60;99.90;;;;;;4986222;28;19930;-64
2022/10/17 07:46:17;;;;;;;;;;;20.60;99.90;;;;;;5005808;28;19930;-65
2022/10/17 07:48:44;;;;;;;;;;;20.60;99.90;;;;;;4987169;28;19941;-66
2022/10/17 07:51:12;;;;;;;;;;;20.60;99.90;;;;;;5001047;28;19952;-65
2022/10/17 07:53:39;;;;;;;;;;;20.60;99.90;;;;;;4994395;28;19926;-66
2022/10/17 07:56:11;;;;;;;;;;;20.70;99.90;;;;;;5008382;28;20290;-66
2022/10/17 07:58:38;;;;;;;;;;;20.60;99.90;;;;;;4996697;28;19949;-65
2022/10/17 08:01:07;;;;;;;;;;;20.60;99.90;;;;;;4990337;28;19937;-65
2022/10/17 08:03:40;;;;;;;;;;;20.60;99.90;;;;;;5013390;28;19925;-64
2022/10/17 08:06:07;;;;;;;;;;;20.60;99.90;;;;;;5019484;28;19934;-64
2022/10/17 08:08:34;;;;;;;;;;;20.60;99.90;;;;;;4996527;28;19934;-64
2022/10/17 08:11:06;;;;;;;;;;;20.70;99.90;;;;;;4993890;28;19934;-65
2022/10/17 08:13:33;;;;;;;;;;;20.70;99.90;;;;;;4990564;28;19930;-66
2022/10/17 08:16:00;;;;;;;;;;;20.80;99.90;;;;;;4983362;28;20290;-64
2022/10/17 08:18:28;;;;;;;;;;;20.80;99.90;;;;;;4996625;28;20332;-64
2022/10/17 08:20:58;;;;;;;;;;;21.00;99.90;;;;;;4987520;28;19930;-64
2022/10/17 08:23:27;;;;;;;;;;;21.00;99.90;;;;;;4997225;28;20313;-65
2022/10/17 08:25:54;;;;;;;;;;;21.10;99.90;;;;;;4988552;28;19945;-66
2022/10/17 08:28:21;;;;;;;;;;;21.10;99.90;;;;;;4997262;28;19926;-64
2022/10/17 08:30:48;;;;;;;;;;;21.10;99.90;;;;;;4984821;28;19937;-63
2022/10/17 08:33:15;;;;;;;;;;;21.20;99.90;;;;;;4998211;28;19933;-65
2022/10/17 08:35:42;;;;;;;;;;;21.20;99.90;;;;;;5000496;28;19960;-64
2022/10/17 08:38:09;;;;;;;;;;;21.20;99.90;;;;;;5003681;28;19925;-64
2022/10/17 08:40:41;;;;;;;;;;;21.20;99.90;;;;;;4989106;28;19926;-65
2022/10/17 08:43:15;;;;;;;;;;;21.20;99.90;;;;;;4991361;28;20287;-65
2022/10/17 08:45:42;;;;;;;;;;;21.20;99.90;;;;;;5003763;28;20025;-64
2022/10/17 08:48:12;;;;;;;;;;;21.20;99.90;;;;;;4989919;28;19930;-65
2022/10/17 08:50:42;;;;;;;;;;;21.20;99.90;;;;;;4996452;28;19926;-65
2022/10/17 08:53:16;;;;;;;;;;;21.20;99.90;;;;;;4994117;28;20309;-65
2022/10/17 08:55:47;;;;;;;;;;;21.20;99.90;;;;;;4989232;28;19926;-65
2022/10/17 08:58:20;;;;;;;;;;;21.10;99.90;;;;;;4985953;28;19930;-66
2022/10/17 09:01:07;;;;;;;;;;;21.10;99.90;;;;;;4991023;28;19937;-63
2022/10/17 09:04:02;;;;;;;;;;;21.20;99.90;;;;;;4988354;28;19926;-64
2022/10/17 09:06:41;;;;;;;;;;;21.10;99.90;;;;;;4987629;28;19937;-63
2022/10/17 09:09:11;;;;;;;;;;;21.10;99.90;;;;;;4987993;28;19934;-65
2022/10/17 09:11:40;;;;;;;;;;;21.10;99.90;;;;;;4998135;28;19930;-66
2022/10/17 09:14:25;;;;;;;;;;;21.10;99.90;;;;;;4996751;28;20059;-66
2022/10/17 09:17:04;;;;;;;;;;;21.10;99.90;;;;;;4994108;28;20325;-65
2022/10/17 09:19:33;;;;;;;;;;;21.10;99.90;;;;;;4987759;28;19926;-65
2022/10/17 09:22:03;;;;;;;;;;;21.10;99.90;;;;;;4986926;28;19926;-66
2022/10/17 09:24:43;;;;;;;;;;;21.10;99.90;;;;;;4998648;28;19926;-66
2022/10/17 09:27:30;;;;;;;;;;;21.10;99.90;;;;;;5003286;28;20293;-64
2022/10/17 09:30:14;;;;;;;;;;;21.10;99.90;;;;;;4988517;28;19930;-65
2022/10/17 09:33:09;;;;;;;;;;;21.10;99.90;;;;;;4986012;28;20302;-65
2022/10/17 09:35:57;;;;;;;;;;;21.10;99.90;;;;;;4984527;28;19930;-66
2022/10/17 09:38:28;;;;;;;;;;;21.10;99.90;;;;;;4991121;28;19941;-65
2022/10/17 09:40:57;;;;;;;;;;;21.10;99.90;;;;;;4987413;28;19926;-65
2022/10/17 09:43:25;;;;;;;;;;;21.10;99.90;;;;;;4997964;28;19934;-64
2022/10/17 09:45:55;;;;;;;;;;;21.00;99.90;;;;;;4991131;28;20298;-66
2022/10/17 09:48:30;;;;;;;;;;;21.00;99.90;;;;;;4987512;28;19937;-64
2022/10/17 09:50:58;;;;;;;;;;;21.00;99.90;;;;;;4989646;28;20363;-65
2022/10/17 09:53:49;;;;;;;;;;;21.00;99.90;;;;;;4987667;28;19944;-64
2022/10/17 09:56:17;;;;;;;;;;;21.00;99.90;;;;;;4993596;28;19933;-65
2022/10/17 09:58:46;;;;;;;;;;;21.00;99.90;;;;;;4997890;28;19956;-58
2022/10/17 10:01:19;;;;;;;;;;;21.00;99.90;;;;;;4992979;28;19933;-62
2022/10/17 10:04:10;;;;;;;;;;;21.00;99.90;;;;;;4993679;28;19933;-62
2022/10/17 10:06:37;;;;;;;;;;;21.00;99.90;;;;;;4991626;28;19933;-61
2022/10/17 10:09:06;;;;;;;;;;;21.00;99.90;;;;;;4998762;28;19929;-65
2022/10/17 10:11:48;;;;;;;;;;;21.00;99.90;;;;;;4985271;28;19930;-63
2022/10/17 10:14:23;;;;;;;;;;;21.00;99.90;;;;;;4983981;28;19927;-60
2022/10/17 10:16:52;;;;;;;;;;;21.00;99.90;;;;;;4996331;28;19932;-63
2022/10/17 10:19:30;;;;;;;;;;;21.00;99.90;;;;;;4996617;28;19941;-63
2022/10/17 10:21:58;;;;;;;;;;;21.00;99.90;;;;;;4996627;28;19960;-58
2022/10/17 10:24:26;;;;;;;;;;;21.00;99.90;;;;;;5005254;28;20302;-63
2022/10/17 10:26:59;;;;;;;;;;;21.00;99.90;;;;;;5018336;28;19929;-62
2022/10/17 10:29:27;;;;;;;;;;;21.00;99.90;;;;;;4991733;28;20018;-63
2022/10/17 10:31:55;;;;;;;;;;;21.00;99.90;;;;;;4982670;28;19930;-63
2022/10/17 10:34:24;;;;;;;;;;;21.00;99.90;;;;;;4983888;28;19929;-61
2022/10/17 10:37:02;;;;;;;;;;;21.00;99.90;;;;;;4994255;28;19926;-63
2022/10/17 10:39:34;;;;;;;;;;;21.00;99.90;;;;;;5005061;28;20008;-63
2022/10/17 10:42:03;;;;;;;;;;;21.00;99.90;;;;;;5000666;28;19926;-61
2022/10/17 10:44:31;;;;;;;;;;;21.00;99.90;;;;;;4994075;28;19929;-64
2022/10/17 10:47:13;;;;;;;;;;;21.00;99.90;;;;;;4988392;28;19930;-63
2022/10/17 10:49:40;;;;;;;;;;;21.00;99.90;;;;;;4989506;28;19926;-61
2022/10/17 10:52:09;;;;;;;;;;;21.00;99.90;;;;;;4983692;28;19936;-62
2022/10/17 10:54:38;;;;;;;;;;;21.00;99.90;;;;;;4995340;28;19925;-61
2022/10/17 10:57:18;;;;;;;;;;;21.00;99.90;;;;;;4988725;28;19950;-63
2022/10/17 11:00:04;;;;;;;;;;;21.00;99.90;;;;;;4994853;28;19925;-61
2022/10/17 11:02:41;;;;;;;;;;;21.00;99.90;;;;;;5005006;28;20010;-62
2022/10/17 11:05:16;;;;;;;;;;;21.00;99.90;;;;;;4994910;28;19937;-62
2022/10/17 11:07:54;;;;;;;;;;;21.00;99.90;;;;;;4988049;28;19929;-59
2022/10/17 11:10:25;;;;;;;;;;;21.00;99.90;;;;;;4982811;28;19934;-61
2022/10/17 11:12:58;;;;;;;;;;;21.00;99.90;;;;;;4979857;28;19966;-63
2022/10/17 11:15:31;;;;;;;;;;;21.00;99.90;;;;;;4993340;28;20291;-61
2022/10/17 11:17:59;;;;;;;;;;;21.00;99.90;;;;;;4985391;28;19952;-65
2022/10/17 11:20:46;;;;;;;;;;;21.00;99.90;;;;;;4991061;28;19929;-61
2022/10/17 11:23:29;;;;;;;;;;;21.00;99.90;;;;;;4995770;28;20283;-61
2022/10/17 11:25:57;;;;;;;;;;;21.00;99.90;;;;;;4985699;28;20412;-62
2022/10/17 11:28:25;;;;;;;;;;;21.00;99.90;;;;;;4996735;28;20398;-65
2022/10/17 11:30:56;;;;;;;;;;;21.00;99.90;;;;;;4988546;28;20386;-61
2022/10/17 11:33:46;;;;;;;;;;;21.00;99.90;;;;;;4983098;28;20472;-62
2022/10/17 11:36:15;;;;;;;;;;;21.00;99.90;;;;;;4985711;28;20346;-62
2022/10/17 11:38:45;;;;;;;;;;;21.00;99.90;;;;;;4994386;28;19929;-62
2022/10/17 11:41:17;;;;;;;;;;;21.00;99.90;;;;;;4983000;28;19937;-63
2022/10/17 11:43:47;;;;;;;;;;;21.00;99.90;;;;;;4981066;28;19929;-62
2022/10/17 11:46:22;;;;;;;;;;;21.00;99.90;;;;;;4973877;28;19934;-63
2022/10/17 11:48:52;;;;;;;;;;;21.00;99.90;;;;;;4981329;28;19926;-62
2022/10/17 11:51:19;;;;;;;;;;;21.00;99.90;;;;;;4982023;28;19930;-63
2022/10/17 11:54:16;;;;;;;;;;;21.00;99.90;;;;;;4995548;28;19938;-61
2022/10/17 11:56:43;;;;;;;;;;;21.00;99.90;;;;;;4985768;28;19926;-62
2022/10/17 11:59:17;;;;;;;;;;;21.00;99.90;;;;;;5008698;28;19933;-61
2022/10/17 12:02:04;;;;;;;;;;;21.00;99.90;;;;;;4979243;28;19937;-63
2022/10/17 12:04:53;;;;;;;;;;;21.00;99.90;;;;;;4982134;28;19949;-60
2022/10/17 12:07:41;;;;;;;;;;;21.00;99.90;;;;;;4986206;28;20432;-62
2022/10/17 12:10:28;;;;;;;;;;;21.00;99.90;;;;;;4985763;28;19932;-60
2022/10/17 12:12:55;;;;;;;;;;;21.00;99.90;;;;;;4984570;28;19941;-61
2022/10/17 12:15:22;;;;;;;;;;;21.00;99.90;;;;;;4983627;28;19937;-64
2022/10/17 12:17:57;;;;;;;;;;;21.00;99.90;;;;;;4989660;28;19933;-61
2022/10/17 12:20:26;;;;;;;;;;;21.10;99.90;;;;;;4999414;28;20412;-59
2022/10/17 12:22:56;;;;;;;;;;;21.00;99.90;;;;;;4990747;28;19930;-61
2022/10/17 12:25:28;;;;;;;;;;;21.00;99.90;;;;;;4987809;28;19937;-62
2022/10/17 12:28:07;;;;;;;;;;;21.00;99.90;;;;;;4988044;28;19929;-63
2022/10/17 12:30:35;;;;;;;;;;;21.10;99.90;;;;;;4995190;28;19929;-63
2022/10/17 12:33:02;;;;;;;;;;;21.10;99.90;;;;;;4988714;28;20401;-59
2022/10/17 12:35:36;;;;;;;;;;;21.10;99.90;;;;;;4981188;28;19934;-61
2022/10/17 12:38:12;;;;;;;;;;;21.00;99.90;;;;;;4994105;28;19937;-61
2022/10/17 12:40:42;;;;;;;;;;;21.10;99.90;;;;;;4980002;28;19926;-64
2022/10/17 12:43:14;;;;;;;;;;;21.10;99.90;;;;;;4979661;28;19937;-63
2022/10/17 12:45:46;;;;;;;;;;;21.10;99.90;;;;;;4994937;28;19984;-60
2022/10/17 12:48:32;;;;;;;;;;;21.10;99.90;;;;;;4995421;28;19925;-62
2022/10/17 12:51:04;;;;;;;;;;;21.10;99.90;;;;;;4990901;28;20102;-63
2022/10/17 12:53:55;;;;;;;;;;;21.10;99.90;;;;;;5010193;28;19936;-63
2022/10/17 12:56:52;;;;;;;;;;;21.10;99.90;;;;;;5005219;28;20275;-63
2022/10/17 12:59:19;;;;;;;;;;;21.10;99.90;;;;;;5005872;28;19926;-63
2022/10/17 13:01:48;;;;;;;;;;;21.10;99.90;;;;;;5004097;28;20412;-65
2022/10/17 13:04:16;;;;;;;;;;;21.20;99.90;;;;;;5015500;28;19926;-59
2022/10/17 13:06:45;;;;;;;;;;;21.10;99.90;;;;;;5005258;28;19936;-63
2022/10/17 13:09:26;;;;;;;;;;;21.20;99.90;;;;;;5000553;28;20130;-63
2022/10/17 13:11:54;;;;;;;;;;;21.20;99.90;;;;;;5007497;28;19930;-62
2022/10/17 13:14:21;;;;;;;;;;;21.20;99.90;;;;;;5005477;28;19929;-62
2022/10/17 13:16:59;;;;;;;;;;;21.20;99.90;;;;;;5001637;28;20063;-64
2022/10/17 13:19:28;;;;;;;;;;;21.20;99.90;;;;;;4998850;28;19937;-59
2022/10/17 13:21:59;;;;;;;;;;;21.30;99.90;;;;;;4980720;28;19937;-61
2022/10/17 13:24:34;;;;;;;;;;;21.30;99.90;;;;;;4989516;28;19936;-62
2022/10/17 13:27:02;;;;;;;;;;;21.30;99.90;;;;;;4992934;28;19949;-60
2022/10/17 13:29:31;;;;;;;;;;;21.30;99.90;;;;;;4990374;28;19941;-63
2022/10/17 13:32:02;;;;;;;;;;;21.30;99.90;;;;;;4995541;28;19945;-60
2022/10/17 13:34:30;;;;;;;;;;;21.30;99.90;;;;;;4985521;28;19929;-60
2022/10/17 13:37:00;;;;;;;;;;;21.30;99.90;;;;;;5004298;28;19929;-62
2022/10/17 13:39:28;;;;;;;;;;;21.30;99.90;;;;;;4989773;28;19926;-64
2022/10/17 13:42:18;;;;;;;;;;;21.30;99.90;;;;;;4992106;28;20307;-62
2022/10/17 13:44:45;;;;;;;;;;;21.30;99.90;;;;;;4988482;28;19933;-63
2022/10/17 13:47:23;;;;;;;;;;;21.20;99.90;;;;;;4983273;28;19930;-61
2022/10/17 13:49:51;;;;;;;;;;;21.20;99.90;;;;;;4995588;28;19944;-64
2022/10/17 13:52:26;;;;;;;;;;;21.20;99.90;;;;;;4986003;28;19926;-63
2022/10/17 13:55:04;;;;;;;;;;;21.20;99.90;;;;;;4993862;28;19952;-63
2022/10/17 13:57:31;;;;;;;;;;;21.20;99.90;;;;;;5010358;28;20356;-61
2022/10/17 14:00:00;;;;;;;;;;;21.20;99.90;;;;;;4985702;28;20059;-60
2022/10/17 14:02:39;;;;;;;;;;;21.10;99.90;;;;;;4999617;28;19930;-63
2022/10/17 14:05:07;;;;;;;;;;;21.10;99.90;;;;;;4993972;28;19930;-64
2022/10/17 14:07:50;;;;;;;;;;;21.10;99.90;;;;;;4987365;28;19933;-62
2022/10/17 14:10:37;;;;;;;;;;;21.10;99.90;;;;;;4983119;28;19937;-60
2022/10/17 14:13:07;;;;;;;;;;;21.20;99.90;;;;;;4982586;28;19936;-64
2022/10/17 14:15:34;;;;;;;;;;;21.20;99.90;;;;;;4980865;28;19925;-61
2022/10/17 14:18:01;;;;;;;;;;;21.20;99.90;;;;;;4989643;28;19925;-61
2022/10/17 14:20:35;;;;;;;;;;;21.20;99.90;;;;;;4977711;28;19933;-64
2022/10/17 14:23:33;;;;;;;;;;;21.20;99.90;;;;;;4983597;28;19926;-61
2022/10/17 14:26:20;;;;;;;;;;;21.10;99.90;;;;;;4989603;28;20305;-63
2022/10/17 14:28:49;;;;;;;;;;;21.20;99.90;;;;;;4993166;28;19930;-61
2022/10/17 14:31:19;;;;;;;;;;;21.10;99.90;;;;;;4988154;28;19933;-63
2022/10/17 14:33:47;;;;;;;;;;;21.10;99.90;;;;;;4991625;28;19937;-61
2022/10/17 14:36:17;;;;;;;;;;;21.10;99.90;;;;;;4985609;28;19934;-62
2022/10/17 14:38:46;;;;;;;;;;;21.10;99.90;;;;;;4986391;28;19930;-59
2022/10/17 14:41:27;;;;;;;;;;;21.10;99.90;;;;;;4992010;28;19930;-58
2022/10/17 14:44:14;;;;;;;;;;;21.20;99.90;;;;;;4986906;28;20223;-62